sensor_id;sensor_type;location;lat;lon;timestamp;pressure;altitude;pressure_sealevel;temperature;humidity
49393;BME280;35268;42.642;23.308;2023-09-18T00:00:47;94417.56;;;16.04;86.73
49393;BME280;35268;42.642;23.308;2023-09-18T00:03:18;94420.13;;;16.00;87.26
49393;BME280;35268;42.642;23.308;2023-09-18T00:05:46;94412.41;;;15.99;87.59
49393;BME280;35268;42.642;23.308;2023-09-18T00:08:13;94415.22;;;16.02;87.43
49393;BME280;35268;42.642;23.308;2023-09-18T00:10:38;94421.03;;;16.04;87.25
49393;BME280;35268;42.642;23.308;2023-09-18T00:13:04;94409.59;;;16.08;87.17
49393;BME280;35268;42.642;23.308;2023-09-18T00:15:30;94414.97;;;16.08;86.36
49393;BME280;35268;42.642;23.308;2023-09-18T00:17:56;94411.50;;;16.07;86.38
49393;BME280;35268;42.642;23.308;2023-09-18T00:20:21;94413.75;;;16.05;86.36
49393;BME280;35268;42.642;23.308;2023-09-18T00:22:52;94409.06;;;16.02;86.35
49393;BME280;35268;42.642;23.308;2023-09-18T00:25:18;94413.53;;;15.98;86.64
49393;BME280;35268;42.642;23.308;2023-09-18T00:27:43;94419.09;;;15.93;86.50
49393;BME280;35268;42.642;23.308;2023-09-18T00:30:08;94412.72;;;15.97;86.48
49393;BME280;35268;42.642;23.308;2023-09-18T00:32:34;94413.16;;;15.99;86.56
49393;BME280;35268;42.642;23.308;2023-09-18T00:34:59;94415.75;;;15.96;86.95
49393;BME280;35268;42.642;23.308;2023-09-18T00:37:25;94425.38;;;15.97;86.93
49393;BME280;35268;42.642;23.308;2023-09-18T00:39:50;94416.75;;;15.91;86.73
49393;BME280;35268;42.642;23.308;2023-09-18T00:42:15;94422.47;;;15.90;86.93
49393;BME280;35268;42.642;23.308;2023-09-18T00:44:43;94417.09;;;15.90;87.06
49393;BME280;35268;42.642;23.308;2023-09-18T00:47:09;94420.69;;;15.94;87.30
49393;BME280;35268;42.642;23.308;2023-09-18T00:49:36;94428.63;;;15.90;87.80
49393;BME280;35268;42.642;23.308;2023-09-18T00:52:04;94417.75;;;15.87;88.70
49393;BME280;35268;42.642;23.308;2023-09-18T00:54:31;94419.97;;;15.84;88.51
49393;BME280;35268;42.642;23.308;2023-09-18T00:56:56;94415.28;;;15.81;88.65
49393;BME280;35268;42.642;23.308;2023-09-18T00:59:22;94423.44;;;15.85;88.65
49393;BME280;35268;42.642;23.308;2023-09-18T01:01:48;94427.25;;;15.84;88.57
49393;BME280;35268;42.642;23.308;2023-09-18T01:04:16;94427.91;;;15.81;89.00
49393;BME280;35268;42.642;23.308;2023-09-18T01:06:42;94435.66;;;15.82;88.90
49393;BME280;35268;42.642;23.308;2023-09-18T01:09:08;94437.25;;;15.83;89.08
49393;BME280;35268;42.642;23.308;2023-09-18T01:17:05;94433.22;;;15.90;88.46
49393;BME280;35268;42.642;23.308;2023-09-18T01:19:49;94434.13;;;15.94;88.21
49393;BME280;35268;42.642;23.308;2023-09-18T01:22:16;94432.78;;;15.88;88.10
49393;BME280;35268;42.642;23.308;2023-09-18T01:24:43;94431.31;;;15.90;88.10
49393;BME280;35268;42.642;23.308;2023-09-18T01:27:11;94433.31;;;15.93;87.74
49393;BME280;35268;42.642;23.308;2023-09-18T01:29:38;94435.56;;;15.91;87.52
49393;BME280;35268;42.642;23.308;2023-09-18T01:32:04;94432.09;;;15.91;87.52
49393;BME280;35268;42.642;23.308;2023-09-18T01:34:33;94435.91;;;15.90;87.63
49393;BME280;35268;42.642;23.308;2023-09-18T01:36:59;94432.31;;;15.86;87.91
49393;BME280;35268;42.642;23.308;2023-09-18T01:39:27;94431.88;;;15.83;88.53
49393;BME280;35268;42.642;23.308;2023-09-18T01:41:58;94436.88;;;15.85;88.72
49393;BME280;35268;42.642;23.308;2023-09-18T01:44:23;94428.50;;;15.87;88.26
49393;BME280;35268;42.642;23.308;2023-09-18T01:46:49;94429.63;;;15.86;88.37
49393;BME280;35268;42.642;23.308;2023-09-18T01:49:19;94435.31;;;15.84;88.24
49393;BME280;35268;42.642;23.308;2023-09-18T01:51:51;94435.41;;;15.75;88.90
49393;BME280;35268;42.642;23.308;2023-09-18T01:54:16;94436.66;;;15.78;88.64
49393;BME280;35268;42.642;23.308;2023-09-18T01:56:42;94433.28;;;15.81;88.53
49393;BME280;35268;42.642;23.308;2023-09-18T01:59:07;94428.00;;;15.72;88.44
49393;BME280;35268;42.642;23.308;2023-09-18T02:01:33;94435.59;;;15.70;88.27
49393;BME280;35268;42.642;23.308;2023-09-18T02:04:00;94437.31;;;15.75;87.70
49393;BME280;35268;42.642;23.308;2023-09-18T02:06:25;94431.31;;;15.69;88.23
49393;BME280;35268;42.642;23.308;2023-09-18T02:08:50;94438.81;;;15.63;88.57
49393;BME280;35268;42.642;23.308;2023-09-18T02:11:16;94443.84;;;15.65;88.57
49393;BME280;35268;42.642;23.308;2023-09-18T02:13:41;94445.44;;;15.66;87.96
49393;BME280;35268;42.642;23.308;2023-09-18T02:16:07;94435.22;;;15.59;88.08
49393;BME280;35268;42.642;23.308;2023-09-18T02:18:32;94443.00;;;15.52;88.19
49393;BME280;35268;42.642;23.308;2023-09-18T02:20:58;94445.56;;;15.49;88.78
49393;BME280;35268;42.642;23.308;2023-09-18T02:23:23;94442.25;;;15.52;88.78
49393;BME280;35268;42.642;23.308;2023-09-18T02:25:56;94442.56;;;15.50;88.60
49393;BME280;35268;42.642;23.308;2023-09-18T02:28:21;94441.31;;;15.48;88.90
49393;BME280;35268;42.642;23.308;2023-09-18T02:30:46;94450.94;;;15.49;89.10
49393;BME280;35268;42.642;23.308;2023-09-18T02:33:12;94446.69;;;15.48;89.47
49393;BME280;35268;42.642;23.308;2023-09-18T02:35:37;94444.16;;;15.51;88.88
49393;BME280;35268;42.642;23.308;2023-09-18T02:38:03;94441.47;;;15.51;88.90
49393;BME280;35268;42.642;23.308;2023-09-18T02:40:29;94441.66;;;15.46;89.03
49393;BME280;35268;42.642;23.308;2023-09-18T02:42:54;94433.13;;;15.44;89.40
49393;BME280;35268;42.642;23.308;2023-09-18T02:45:19;94440.41;;;15.43;89.67
49393;BME280;35268;42.642;23.308;2023-09-18T02:47:45;94442.31;;;15.43;89.64
49393;BME280;35268;42.642;23.308;2023-09-18T02:50:10;94437.06;;;15.47;89.30
49393;BME280;35268;42.642;23.308;2023-09-18T02:52:36;94445.47;;;15.45;89.33
49393;BME280;35268;42.642;23.308;2023-09-18T02:55:02;94446.25;;;15.45;89.33
49393;BME280;35268;42.642;23.308;2023-09-18T02:57:28;94442.31;;;15.43;89.23
49393;BME280;35268;42.642;23.308;2023-09-18T02:59:53;94444.19;;;15.42;89.33
49393;BME280;35268;42.642;23.308;2023-09-18T03:02:19;94452.59;;;15.41;89.66
49393;BME280;35268;42.642;23.308;2023-09-18T03:04:44;94447.09;;;15.37;89.98
49393;BME280;35268;42.642;23.308;2023-09-18T03:07:12;94452.16;;;15.39;90.32
49393;BME280;35268;42.642;23.308;2023-09-18T03:09:38;94442.38;;;15.34;90.36
49393;BME280;35268;42.642;23.308;2023-09-18T03:12:03;94448.19;;;15.36;90.23
49393;BME280;35268;42.642;23.308;2023-09-18T03:14:29;94441.28;;;15.35;89.89
49393;BME280;35268;42.642;23.308;2023-09-18T03:16:55;94449.00;;;15.37;89.90
49393;BME280;35268;42.642;23.308;2023-09-18T03:19:21;94440.81;;;15.33;89.88
49393;BME280;35268;42.642;23.308;2023-09-18T03:21:47;94436.22;;;15.34;90.45
49393;BME280;35268;42.642;23.308;2023-09-18T03:24:13;94428.50;;;15.32;90.90
49393;BME280;35268;42.642;23.308;2023-09-18T03:26:38;94435.63;;;15.28;90.55
49393;BME280;35268;42.642;23.308;2023-09-18T03:29:03;94431.38;;;15.27;90.59
49393;BME280;35268;42.642;23.308;2023-09-18T03:31:29;94429.16;;;15.29;89.91
49393;BME280;35268;42.642;23.308;2023-09-18T03:33:55;94430.16;;;15.24;89.82
49393;BME280;35268;42.642;23.308;2023-09-18T03:36:23;94432.94;;;15.28;89.83
49393;BME280;35268;42.642;23.308;2023-09-18T03:38:49;94431.78;;;15.17;90.07
49393;BME280;35268;42.642;23.308;2023-09-18T03:41:14;94432.88;;;15.16;90.37
49393;BME280;35268;42.642;23.308;2023-09-18T03:43:40;94427.50;;;15.16;90.50
49393;BME280;35268;42.642;23.308;2023-09-18T03:46:06;94419.66;;;15.11;90.12
49393;BME280;35268;42.642;23.308;2023-09-18T03:48:32;94422.06;;;15.03;90.33
49393;BME280;35268;42.642;23.308;2023-09-18T03:51:03;94425.16;;;14.93;90.97
49393;BME280;35268;42.642;23.308;2023-09-18T03:53:29;94416.84;;;14.86;92.03
49393;BME280;35268;42.642;23.308;2023-09-18T03:55:55;94420.00;;;14.88;92.34
49393;BME280;35268;42.642;23.308;2023-09-18T03:58:20;94424.22;;;14.89;92.21
49393;BME280;35268;42.642;23.308;2023-09-18T04:00:45;94422.22;;;14.86;92.64
49393;BME280;35268;42.642;23.308;2023-09-18T04:03:11;94423.31;;;14.85;92.95
49393;BME280;35268;42.642;23.308;2023-09-18T04:05:36;94414.53;;;14.76;93.76
49393;BME280;35268;42.642;23.308;2023-09-18T04:08:05;94419.63;;;14.69;94.36
49393;BME280;35268;42.642;23.308;2023-09-18T04:10:30;94419.78;;;14.72;94.62
49393;BME280;35268;42.642;23.308;2023-09-18T04:12:56;94422.13;;;14.74;94.46
49393;BME280;35268;42.642;23.308;2023-09-18T04:15:22;94429.84;;;14.75;94.68
49393;BME280;35268;42.642;23.308;2023-09-18T04:17:48;94421.00;;;14.75;94.58
49393;BME280;35268;42.642;23.308;2023-09-18T04:20:14;94432.66;;;14.79;94.88
49393;BME280;35268;42.642;23.308;2023-09-18T04:22:43;94433.78;;;14.78;95.10
49393;BME280;35268;42.642;23.308;2023-09-18T04:25:10;94436.47;;;14.78;95.43
49393;BME280;35268;42.642;23.308;2023-09-18T04:27:35;94444.91;;;14.89;95.00
49393;BME280;35268;42.642;23.308;2023-09-18T04:30:01;94445.06;;;14.92;94.94
49393;BME280;35268;42.642;23.308;2023-09-18T04:32:27;94444.84;;;14.97;94.89
49393;BME280;35268;42.642;23.308;2023-09-18T04:34:54;94443.09;;;15.01;94.36
49393;BME280;35268;42.642;23.308;2023-09-18T04:37:19;94442.44;;;15.04;94.23
49393;BME280;35268;42.642;23.308;2023-09-18T04:39:45;94447.81;;;15.04;94.51
49393;BME280;35268;42.642;23.308;2023-09-18T04:42:10;94448.53;;;15.14;94.37
49393;BME280;35268;42.642;23.308;2023-09-18T04:44:35;94442.84;;;15.15;94.08
49393;BME280;35268;42.642;23.308;2023-09-18T04:47:01;94444.34;;;15.25;94.54
49393;BME280;35268;42.642;23.308;2023-09-18T04:49:26;94449.97;;;15.32;93.92
49393;BME280;35268;42.642;23.308;2023-09-18T04:51:53;94445.47;;;15.45;93.83
49393;BME280;35268;42.642;23.308;2023-09-18T04:54:18;94440.59;;;15.59;93.07
49393;BME280;35268;42.642;23.308;2023-09-18T04:56:44;94436.06;;;15.72;93.12
49393;BME280;35268;42.642;23.308;2023-09-18T04:59:10;94435.00;;;15.86;92.18
49393;BME280;35268;42.642;23.308;2023-09-18T05:01:36;94440.06;;;15.99;91.80
49393;BME280;35268;42.642;23.308;2023-09-18T05:04:01;94445.13;;;16.13;90.57
49393;BME280;35268;42.642;23.308;2023-09-18T05:06:27;94449.19;;;16.19;89.92
49393;BME280;35268;42.642;23.308;2023-09-18T05:08:52;94441.81;;;16.29;89.55
49393;BME280;35268;42.642;23.308;2023-09-18T05:11:19;94444.06;;;16.39;88.87
49393;BME280;35268;42.642;23.308;2023-09-18T05:13:44;94429.03;;;16.50;88.68
49393;BME280;35268;42.642;23.308;2023-09-18T05:16:10;94447.19;;;16.65;88.45
49393;BME280;35268;42.642;23.308;2023-09-18T05:18:35;94439.69;;;16.71;87.86
49393;BME280;35268;42.642;23.308;2023-09-18T05:21:01;94446.63;;;16.72;86.85
49393;BME280;35268;42.642;23.308;2023-09-18T05:23:27;94458.16;;;16.73;86.65
49393;BME280;35268;42.642;23.308;2023-09-18T05:25:52;94452.91;;;16.76;86.08
49393;BME280;35268;42.642;23.308;2023-09-18T05:28:18;94455.41;;;16.81;86.44
49393;BME280;35268;42.642;23.308;2023-09-18T05:30:43;94453.03;;;16.92;85.55
49393;BME280;35268;42.642;23.308;2023-09-18T05:33:09;94453.16;;;16.96;84.90
49393;BME280;35268;42.642;23.308;2023-09-18T05:35:44;94457.63;;;17.04;84.34
49393;BME280;35268;42.642;23.308;2023-09-18T05:38:11;94449.56;;;17.04;83.93
49393;BME280;35268;42.642;23.308;2023-09-18T05:40:38;94455.84;;;17.08;83.95
49393;BME280;35268;42.642;23.308;2023-09-18T05:43:04;94455.94;;;17.12;84.17
49393;BME280;35268;42.642;23.308;2023-09-18T05:45:29;94452.44;;;17.11;84.49
49393;BME280;35268;42.642;23.308;2023-09-18T05:47:56;94455.47;;;17.22;84.13
49393;BME280;35268;42.642;23.308;2023-09-18T05:50:32;94459.34;;;17.37;83.80
49393;BME280;35268;42.642;23.308;2023-09-18T05:52:58;94465.75;;;17.44;83.46
49393;BME280;35268;42.642;23.308;2023-09-18T05:55:26;94462.25;;;17.44;83.22
49393;BME280;35268;42.642;23.308;2023-09-18T05:57:53;94462.78;;;17.50;82.88
49393;BME280;35268;42.642;23.308;2023-09-18T06:00:18;94461.63;;;17.63;82.69
49393;BME280;35268;42.642;23.308;2023-09-18T06:02:43;94459.56;;;17.72;81.97
49393;BME280;35268;42.642;23.308;2023-09-18T06:05:11;94465.94;;;17.80;81.06
49393;BME280;35268;42.642;23.308;2023-09-18T06:07:36;94466.06;;;17.83;81.08
49393;BME280;35268;42.642;23.308;2023-09-18T06:10:02;94457.38;;;17.90;80.75
49393;BME280;35268;42.642;23.308;2023-09-18T06:12:27;94462.97;;;17.97;79.88
49393;BME280;35268;42.642;23.308;2023-09-18T06:14:53;94461.06;;;17.98;80.36
49393;BME280;35268;42.642;23.308;2023-09-18T06:17:18;94458.53;;;17.89;79.87
49393;BME280;35268;42.642;23.308;2023-09-18T06:19:44;94461.91;;;17.86;80.68
49393;BME280;35268;42.642;23.308;2023-09-18T06:22:10;94459.97;;;17.87;81.51
49393;BME280;35268;42.642;23.308;2023-09-18T06:24:36;94470.00;;;17.86;80.20
49393;BME280;35268;42.642;23.308;2023-09-18T06:27:02;94474.72;;;18.05;80.38
49393;BME280;35268;42.642;23.308;2023-09-18T06:29:31;94461.78;;;18.27;80.62
49393;BME280;35268;42.642;23.308;2023-09-18T06:31:57;94475.03;;;18.48;79.04
49393;BME280;35268;42.642;23.308;2023-09-18T06:34:22;94468.34;;;18.57;77.64
49393;BME280;35268;42.642;23.308;2023-09-18T06:36:48;94472.44;;;18.67;76.94
49393;BME280;35268;42.642;23.308;2023-09-18T06:39:14;94470.59;;;18.71;76.74
49393;BME280;35268;42.642;23.308;2023-09-18T06:41:40;94469.88;;;18.74;76.39
49393;BME280;35268;42.642;23.308;2023-09-18T06:44:05;94471.91;;;18.93;75.91
49393;BME280;35268;42.642;23.308;2023-09-18T06:46:31;94467.53;;;19.04;75.50
49393;BME280;35268;42.642;23.308;2023-09-18T06:48:56;94476.31;;;19.17;74.92
49393;BME280;35268;42.642;23.308;2023-09-18T06:51:25;94474.97;;;19.27;74.10
49393;BME280;35268;42.642;23.308;2023-09-18T06:53:51;94473.94;;;19.32;73.58
49393;BME280;35268;42.642;23.308;2023-09-18T06:56:16;94467.53;;;19.40;73.26
49393;BME280;35268;42.642;23.308;2023-09-18T06:58:41;94462.19;;;19.43;73.76
49393;BME280;35268;42.642;23.308;2023-09-18T07:01:07;94460.75;;;19.50;73.87
49393;BME280;35268;42.642;23.308;2023-09-18T07:03:35;94473.44;;;19.65;73.50
49393;BME280;35268;42.642;23.308;2023-09-18T07:06:01;94473.09;;;19.86;72.73
49393;BME280;35268;42.642;23.308;2023-09-18T07:08:30;94467.63;;;20.02;70.52
49393;BME280;35268;42.642;23.308;2023-09-18T07:10:56;94465.84;;;20.10;70.64
49393;BME280;35268;42.642;23.308;2023-09-18T07:13:21;94466.16;;;20.28;71.00
49393;BME280;35268;42.642;23.308;2023-09-18T07:15:47;94468.47;;;20.29;69.37
49393;BME280;35268;42.642;23.308;2023-09-18T07:18:13;94462.19;;;20.44;68.34
49393;BME280;35268;42.642;23.308;2023-09-18T07:20:43;94464.28;;;20.55;68.50
49393;BME280;35268;42.642;23.308;2023-09-18T07:23:09;94466.00;;;20.63;67.52
49393;BME280;35268;42.642;23.308;2023-09-18T07:25:35;94463.09;;;20.75;67.63
49393;BME280;35268;42.642;23.308;2023-09-18T07:28:05;94463.88;;;20.76;67.27
49393;BME280;35268;42.642;23.308;2023-09-18T07:30:30;94475.78;;;20.94;67.06
49393;BME280;35268;42.642;23.308;2023-09-18T07:32:56;94475.22;;;21.08;66.30
49393;BME280;35268;42.642;23.308;2023-09-18T07:35:24;94479.16;;;21.14;66.17
49393;BME280;35268;42.642;23.308;2023-09-18T07:37:49;94470.19;;;21.07;65.48
49393;BME280;35268;42.642;23.308;2023-09-18T07:40:15;94482.25;;;21.13;65.72
49393;BME280;35268;42.642;23.308;2023-09-18T07:42:44;94473.13;;;21.24;65.05
49393;BME280;35268;42.642;23.308;2023-09-18T07:45:12;94465.47;;;21.30;64.88
49393;BME280;35268;42.642;23.308;2023-09-18T07:47:38;94465.69;;;21.44;64.63
49393;BME280;35268;42.642;23.308;2023-09-18T07:50:04;94476.53;;;21.44;64.27
49393;BME280;35268;42.642;23.308;2023-09-18T07:52:30;94462.19;;;21.44;63.63
49393;BME280;35268;42.642;23.308;2023-09-18T07:54:57;94477.19;;;21.38;63.65
49393;BME280;35268;42.642;23.308;2023-09-18T07:57:23;94462.53;;;21.16;64.10
49393;BME280;35268;42.642;23.308;2023-09-18T07:59:49;94457.69;;;21.29;65.04
49393;BME280;35268;42.642;23.308;2023-09-18T08:02:14;94466.91;;;21.24;64.22
49393;BME280;35268;42.642;23.308;2023-09-18T08:04:40;94463.50;;;21.27;64.22
49393;BME280;35268;42.642;23.308;2023-09-18T08:07:05;94460.53;;;21.09;64.88
49393;BME280;35268;42.642;23.308;2023-09-18T08:09:32;94461.13;;;21.26;64.38
49393;BME280;35268;42.642;23.308;2023-09-18T08:12:04;94459.72;;;21.35;63.72
49393;BME280;35268;42.642;23.308;2023-09-18T08:14:30;94456.81;;;21.48;63.26
49393;BME280;35268;42.642;23.308;2023-09-18T08:16:59;94465.50;;;21.34;63.26
49393;BME280;35268;42.642;23.308;2023-09-18T08:19:25;94451.41;;;21.48;62.54
49393;BME280;35268;42.642;23.308;2023-09-18T08:21:54;94454.19;;;21.55;62.50
49393;BME280;35268;42.642;23.308;2023-09-18T08:24:22;94456.06;;;21.51;62.02
49393;BME280;35268;42.642;23.308;2023-09-18T08:26:48;94456.00;;;21.47;61.64
49393;BME280;35268;42.642;23.308;2023-09-18T08:29:13;94448.88;;;21.62;61.63
49393;BME280;35268;42.642;23.308;2023-09-18T08:31:39;94449.75;;;21.73;62.44
49393;BME280;35268;42.642;23.308;2023-09-18T08:34:04;94446.88;;;21.93;62.63
49393;BME280;35268;42.642;23.308;2023-09-18T08:36:29;94439.19;;;21.98;61.36
49393;BME280;35268;42.642;23.308;2023-09-18T08:38:56;94445.47;;;22.06;61.54
49393;BME280;35268;42.642;23.308;2023-09-18T08:41:23;94437.81;;;22.15;61.26
49393;BME280;35268;42.642;23.308;2023-09-18T08:43:52;94439.78;;;22.18;59.38
49393;BME280;35268;42.642;23.308;2023-09-18T08:46:21;94432.56;;;22.30;60.08
49393;BME280;35268;42.642;23.308;2023-09-18T08:48:48;94428.66;;;22.31;60.24
49393;BME280;35268;42.642;23.308;2023-09-18T08:51:15;94437.28;;;22.40;59.93
49393;BME280;35268;42.642;23.308;2023-09-18T08:53:42;94426.09;;;22.45;59.43
49393;BME280;35268;42.642;23.308;2023-09-18T08:56:07;94424.94;;;22.46;58.59
49393;BME280;35268;42.642;23.308;2023-09-18T08:58:36;94422.25;;;22.50;59.96
49393;BME280;35268;42.642;23.308;2023-09-18T09:01:05;94426.50;;;22.47;58.65
49393;BME280;35268;42.642;23.308;2023-09-18T09:03:32;94424.94;;;22.46;57.67
49393;BME280;35268;42.642;23.308;2023-09-18T09:05:59;94426.84;;;22.42;58.35
49393;BME280;35268;42.642;23.308;2023-09-18T09:08:27;94425.06;;;22.60;58.62
49393;BME280;35268;42.642;23.308;2023-09-18T09:10:53;94428.22;;;22.66;57.02
49393;BME280;35268;42.642;23.308;2023-09-18T09:13:19;94432.16;;;22.76;56.54
49393;BME280;35268;42.642;23.308;2023-09-18T09:15:50;94419.81;;;22.89;57.09
49393;BME280;35268;42.642;23.308;2023-09-18T09:18:19;94422.13;;;22.87;56.66
49393;BME280;35268;42.642;23.308;2023-09-18T09:20:59;94421.81;;;22.96;56.39
49393;BME280;35268;42.642;23.308;2023-09-18T09:23:29;94430.44;;;23.05;55.35
49393;BME280;35268;42.642;23.308;2023-09-18T09:26:15;94415.00;;;23.16;54.65
49393;BME280;35268;42.642;23.308;2023-09-18T09:28:41;94412.31;;;23.27;55.73
49393;BME280;35268;42.642;23.308;2023-09-18T09:31:08;94419.34;;;23.35;53.22
49393;BME280;35268;42.642;23.308;2023-09-18T09:33:35;94407.31;;;23.36;53.06
49393;BME280;35268;42.642;23.308;2023-09-18T09:36:04;94417.84;;;23.49;52.41
49393;BME280;35268;42.642;23.308;2023-09-18T09:38:30;94409.34;;;23.61;53.49
49393;BME280;35268;42.642;23.308;2023-09-18T09:41:00;94415.59;;;23.69;52.57
49393;BME280;35268;42.642;23.308;2023-09-18T09:43:28;94405.19;;;23.78;52.53
49393;BME280;35268;42.642;23.308;2023-09-18T09:46:01;94401.28;;;23.79;50.26
49393;BME280;35268;42.642;23.308;2023-09-18T09:48:26;94407.03;;;23.67;50.29
49393;BME280;35268;42.642;23.308;2023-09-18T09:50:57;94407.44;;;23.69;49.76
49393;BME280;35268;42.642;23.308;2023-09-18T09:56:10;94392.81;;;24.02;49.51
49393;BME280;35268;42.642;23.308;2023-09-18T09:58:35;94395.94;;;24.15;49.81
49393;BME280;35268;42.642;23.308;2023-09-18T10:01:03;94392.06;;;24.27;50.21
49393;BME280;35268;42.642;23.308;2023-09-18T10:03:35;94384.28;;;24.36;48.22
49393;BME280;35268;42.642;23.308;2023-09-18T10:06:05;94381.19;;;24.41;47.87
49393;BME280;35268;42.642;23.308;2023-09-18T10:08:31;94390.50;;;24.43;46.27
49393;BME280;35268;42.642;23.308;2023-09-18T10:11:06;94392.88;;;24.49;46.76
49393;BME280;35268;42.642;23.308;2023-09-18T10:14:00;94387.81;;;24.58;45.83
49393;BME280;35268;42.642;23.308;2023-09-18T10:16:30;94381.56;;;24.65;45.87
49393;BME280;35268;42.642;23.308;2023-09-18T10:19:07;94384.69;;;24.74;45.68
49393;BME280;35268;42.642;23.308;2023-09-18T10:25:13;94380.78;;;24.82;45.78
49393;BME280;35268;42.642;23.308;2023-09-18T10:27:45;94380.00;;;24.92;46.25
49393;BME280;35268;42.642;23.308;2023-09-18T10:30:11;94374.94;;;24.98;45.87
49393;BME280;35268;42.642;23.308;2023-09-18T10:32:40;94366.72;;;25.05;45.37
49393;BME280;35268;42.642;23.308;2023-09-18T10:35:07;94369.03;;;25.17;44.88
49393;BME280;35268;42.642;23.308;2023-09-18T10:37:37;94350.34;;;25.16;44.20
49393;BME280;35268;42.642;23.308;2023-09-18T10:40:05;94347.19;;;25.17;45.09
49393;BME280;35268;42.642;23.308;2023-09-18T10:42:34;94349.56;;;25.26;44.54
49393;BME280;35268;42.642;23.308;2023-09-18T10:45:00;94343.69;;;25.31;44.39
49393;BME280;35268;42.642;23.308;2023-09-18T10:47:27;94342.09;;;25.37;44.99
49393;BME280;35268;42.642;23.308;2023-09-18T10:49:53;94352.22;;;25.40;44.01
49393;BME280;35268;42.642;23.308;2023-09-18T10:52:19;94337.41;;;25.38;42.90
49393;BME280;35268;42.642;23.308;2023-09-18T10:54:44;94341.78;;;25.21;43.68
49393;BME280;35268;42.642;23.308;2023-09-18T10:57:11;94336.25;;;25.39;43.97
49393;BME280;35268;42.642;23.308;2023-09-18T10:59:44;94339.31;;;25.52;44.33
49393;BME280;35268;42.642;23.308;2023-09-18T11:02:14;94336.94;;;25.61;43.17
49393;BME280;35268;42.642;23.308;2023-09-18T11:04:42;94329.88;;;25.71;42.39
49393;BME280;35268;42.642;23.308;2023-09-18T11:07:08;94334.06;;;25.82;42.36
49393;BME280;35268;42.642;23.308;2023-09-18T11:09:44;94333.25;;;25.93;41.29
49393;BME280;35268;42.642;23.308;2023-09-18T11:12:11;94332.03;;;26.01;41.95
49393;BME280;35268;42.642;23.308;2023-09-18T11:22:56;94314.00;;;26.14;42.11
49393;BME280;35268;42.642;23.308;2023-09-18T11:27:57;94304.44;;;26.37;41.11
49393;BME280;35268;42.642;23.308;2023-09-18T11:30:22;94310.63;;;26.48;41.57
49393;BME280;35268;42.642;23.308;2023-09-18T11:32:51;94303.09;;;26.59;39.55
49393;BME280;35268;42.642;23.308;2023-09-18T11:35:18;94300.31;;;26.67;39.40
49393;BME280;35268;42.642;23.308;2023-09-18T11:37:45;94306.44;;;26.78;40.44
49393;BME280;35268;42.642;23.308;2023-09-18T11:40:30;94294.28;;;26.82;39.06
49393;BME280;35268;42.642;23.308;2023-09-18T11:43:27;94302.38;;;26.93;38.94
49393;BME280;35268;42.642;23.308;2023-09-18T11:45:58;94294.81;;;27.05;40.23
49393;BME280;35268;42.642;23.308;2023-09-18T11:48:25;94293.56;;;27.13;37.95
49393;BME280;35268;42.642;23.308;2023-09-18T11:50:58;94295.47;;;27.16;38.50
49393;BME280;35268;42.642;23.308;2023-09-18T11:53:24;94286.28;;;27.33;38.50
49393;BME280;35268;42.642;23.308;2023-09-18T11:55:51;94283.44;;;27.44;38.32
49393;BME280;35268;42.642;23.308;2023-09-18T11:58:17;94282.16;;;27.52;37.61
49393;BME280;35268;42.642;23.308;2023-09-18T12:00:45;94285.25;;;27.54;38.02
49393;BME280;35268;42.642;23.308;2023-09-18T12:03:17;94279.91;;;27.74;37.42
49393;BME280;35268;42.642;23.308;2023-09-18T12:05:58;94274.53;;;27.94;37.12
49393;BME280;35268;42.642;23.308;2023-09-18T12:08:24;94280.09;;;28.14;36.14
49393;BME280;35268;42.642;23.308;2023-09-18T12:10:54;94281.28;;;28.13;35.72
49393;BME280;35268;42.642;23.308;2023-09-18T12:13:19;94289.38;;;28.20;36.08
49393;BME280;35268;42.642;23.308;2023-09-18T12:15:46;94291.63;;;28.29;35.68
49393;BME280;35268;42.642;23.308;2023-09-18T12:18:13;94285.69;;;28.31;35.57
49393;BME280;35268;42.642;23.308;2023-09-18T12:20:47;94277.00;;;28.36;35.25
49393;BME280;35268;42.642;23.308;2023-09-18T12:23:14;94278.44;;;28.44;35.32
49393;BME280;35268;42.642;23.308;2023-09-18T12:25:40;94259.44;;;28.57;35.58
49393;BME280;35268;42.642;23.308;2023-09-18T12:28:06;94261.81;;;28.55;35.43
49393;BME280;35268;42.642;23.308;2023-09-18T12:30:33;94260.28;;;28.74;35.09
49393;BME280;35268;42.642;23.308;2023-09-18T12:32:59;94271.59;;;28.99;34.44
49393;BME280;35268;42.642;23.308;2023-09-18T12:35:29;94262.75;;;29.12;34.03
49393;BME280;35268;42.642;23.308;2023-09-18T12:37:59;94265.34;;;29.19;34.80
49393;BME280;35268;42.642;23.308;2023-09-18T12:40:27;94269.00;;;29.32;34.40
49393;BME280;35268;42.642;23.308;2023-09-18T12:42:57;94261.03;;;29.38;35.12
49393;BME280;35268;42.642;23.308;2023-09-18T12:45:26;94261.28;;;29.27;34.46
49393;BME280;35268;42.642;23.308;2023-09-18T12:47:55;94263.28;;;29.03;35.16
49393;BME280;35268;42.642;23.308;2023-09-18T12:50:21;94265.78;;;28.74;35.98
49393;BME280;35268;42.642;23.308;2023-09-18T12:52:46;94262.94;;;28.57;36.34
49393;BME280;35268;42.642;23.308;2023-09-18T12:55:24;94257.69;;;28.43;36.58
49393;BME280;35268;42.642;23.308;2023-09-18T12:57:51;94253.16;;;28.33;37.07
49393;BME280;35268;42.642;23.308;2023-09-18T13:00:19;94248.00;;;28.38;36.75
49393;BME280;35268;42.642;23.308;2023-09-18T13:02:46;94244.41;;;28.41;36.26
49393;BME280;35268;42.642;23.308;2023-09-18T13:05:12;94240.75;;;28.52;36.21
49393;BME280;35268;42.642;23.308;2023-09-18T13:07:46;94250.09;;;28.54;36.22
49393;BME280;35268;42.642;23.308;2023-09-18T13:10:12;94255.53;;;28.58;36.90
49393;BME280;35268;42.642;23.308;2023-09-18T13:12:45;94249.41;;;28.70;37.15